sensor_id;sensor_type;location;lat;lon;timestamp;P1;durP1;ratioP1;P2;durP2;ratioP2
56760;SDS011;42633;44.494;11.356;2022-07-29T00:00:33;5.20;;;4.55;;
56760;SDS011;42633;44.494;11.356;2022-07-29T00:03:38;9.90;;;4.80;;
56760;SDS011;42633;44.494;11.356;2022-07-29T00:06:44;8.10;;;4.57;;
56760;SDS011;42633;44.494;11.356;2022-07-29T00:09:48;6.80;;;4.35;;
56760;SDS011;42633;44.494;11.356;2022-07-29T00:12:52;16.08;;;5.55;;
56760;SDS011;42633;44.494;11.356;2022-07-29T00:15:56;5.53;;;4.65;;
56760;SDS011;42633;44.494;11.356;2022-07-29T00:19:00;8.65;;;4.65;;
56760;SDS011;42633;44.494;11.356;2022-07-29T00:22:14;9.02;;;4.95;;
56760;SDS011;42633;44.494;11.356;2022-07-29T00:25:18;5.95;;;4.68;;
56760;SDS011;42633;44.494;11.356;2022-07-29T00:28:24;8.32;;;4.72;;
56760;SDS011;42633;44.494;11.356;2022-07-29T00:31:36;7.18;;;5.03;;
56760;SDS011;42633;44.494;11.356;2022-07-29T00:38:06;4.60;;;4.10;;
56760;SDS011;42633;44.494;11.356;2022-07-29T00:41:17;7.75;;;4.53;;
56760;SDS011;42633;44.494;11.356;2022-07-29T00:44:21;7.32;;;4.90;;
56760;SDS011;42633;44.494;11.356;2022-07-29T00:47:26;9.70;;;4.97;;
56760;SDS011;42633;44.494;11.356;2022-07-29T00:50:31;8.05;;;4.70;;
56760;SDS011;42633;44.494;11.356;2022-07-29T00:53:36;6.32;;;4.53;;
56760;SDS011;42633;44.494;11.356;2022-07-29T00:56:47;16.80;;;6.05;;
56760;SDS011;42633;44.494;11.356;2022-07-29T00:59:51;5.82;;;4.85;;
56760;SDS011;42633;44.494;11.356;2022-07-29T01:02:55;7.10;;;4.78;;
56760;SDS011;42633;44.494;11.356;2022-07-29T01:05:59;7.68;;;4.40;;
56760;SDS011;42633;44.494;11.356;2022-07-29T01:09:04;4.63;;;4.20;;
56760;SDS011;42633;44.494;11.356;2022-07-29T01:12:10;7.18;;;4.50;;
56760;SDS011;42633;44.494;11.356;2022-07-29T01:15:16;5.47;;;4.45;;
56760;SDS011;42633;44.494;11.356;2022-07-29T01:18:23;5.85;;;4.60;;
56760;SDS011;42633;44.494;11.356;2022-07-29T01:21:39;6.22;;;4.32;;
56760;SDS011;42633;44.494;11.356;2022-07-29T01:25:03;9.77;;;5.30;;
56760;SDS011;42633;44.494;11.356;2022-07-29T01:32:01;7.95;;;5.32;;
56760;SDS011;42633;44.494;11.356;2022-07-29T01:35:23;7.28;;;5.43;;
56760;SDS011;42633;44.494;11.356;2022-07-29T01:38:29;6.57;;;4.85;;
56760;SDS011;42633;44.494;11.356;2022-07-29T01:41:34;7.55;;;4.78;;
56760;SDS011;42633;44.494;11.356;2022-07-29T01:44:50;6.47;;;5.47;;
56760;SDS011;42633;44.494;11.356;2022-07-29T01:54:30;7.93;;;5.43;;
56760;SDS011;42633;44.494;11.356;2022-07-29T01:57:38;9.80;;;5.50;;
56760;SDS011;42633;44.494;11.356;2022-07-29T02:00:46;9.27;;;6.18;;
56760;SDS011;42633;44.494;11.356;2022-07-29T02:03:53;10.02;;;5.60;;
56760;SDS011;42633;44.494;11.356;2022-07-29T02:07:00;9.45;;;5.45;;
56760;SDS011;42633;44.494;11.356;2022-07-29T02:10:06;6.80;;;5.50;;
56760;SDS011;42633;44.494;11.356;2022-07-29T02:13:15;9.25;;;5.90;;
56760;SDS011;42633;44.494;11.356;2022-07-29T02:16:21;10.05;;;5.15;;
56760;SDS011;42633;44.494;11.356;2022-07-29T02:19:27;8.48;;;5.18;;
56760;SDS011;42633;44.494;11.356;2022-07-29T02:22:37;8.65;;;5.50;;
56760;SDS011;42633;44.494;11.356;2022-07-29T02:25:43;6.23;;;5.13;;
56760;SDS011;42633;44.494;11.356;2022-07-29T02:28:49;9.85;;;5.72;;
56760;SDS011;42633;44.494;11.356;2022-07-29T02:31:55;8.45;;;5.20;;
56760;SDS011;42633;44.494;11.356;2022-07-29T02:35:05;8.43;;;5.43;;
56760;SDS011;42633;44.494;11.356;2022-07-29T02:38:13;5.88;;;5.18;;
56760;SDS011;42633;44.494;11.356;2022-07-29T02:44:49;7.43;;;5.25;;
56760;SDS011;42633;44.494;11.356;2022-07-29T02:47:55;7.88;;;5.63;;
56760;SDS011;42633;44.494;11.356;2022-07-29T02:51:07;5.65;;;5.03;;
56760;SDS011;42633;44.494;11.356;2022-07-29T02:57:39;7.35;;;4.97;;
56760;SDS011;42633;44.494;11.356;2022-07-29T03:00:46;6.93;;;5.03;;
56760;SDS011;42633;44.494;11.356;2022-07-29T03:03:53;8.13;;;5.10;;
56760;SDS011;42633;44.494;11.356;2022-07-29T03:06:59;7.68;;;5.40;;
56760;SDS011;42633;44.494;11.356;2022-07-29T03:10:05;8.77;;;5.50;;
56760;SDS011;42633;44.494;11.356;2022-07-29T03:13:12;9.98;;;5.20;;
56760;SDS011;42633;44.494;11.356;2022-07-29T03:16:17;6.80;;;4.75;;
56760;SDS011;42633;44.494;11.356;2022-07-29T03:22:30;5.93;;;5.13;;
56760;SDS011;42633;44.494;11.356;2022-07-29T03:25:34;6.35;;;4.97;;
56760;SDS011;42633;44.494;11.356;2022-07-29T03:28:39;8.35;;;5.47;;
56760;SDS011;42633;44.494;11.356;2022-07-29T03:31:44;7.53;;;5.28;;
56760;SDS011;42633;44.494;11.356;2022-07-29T03:34:49;7.90;;;5.32;;
56760;SDS011;42633;44.494;11.356;2022-07-29T03:41:24;8.23;;;5.18;;
56760;SDS011;42633;44.494;11.356;2022-07-29T03:44:28;7.90;;;5.15;;
56760;SDS011;42633;44.494;11.356;2022-07-29T03:47:34;8.02;;;4.97;;
56760;SDS011;42633;44.494;11.356;2022-07-29T03:50:41;9.07;;;5.07;;
56760;SDS011;42633;44.494;11.356;2022-07-29T03:53:46;7.88;;;5.47;;
56760;SDS011;42633;44.494;11.356;2022-07-29T03:56:50;9.13;;;5.53;;
56760;SDS011;42633;44.494;11.356;2022-07-29T03:59:56;7.13;;;4.82;;
56760;SDS011;42633;44.494;11.356;2022-07-29T04:03:01;10.02;;;5.78;;
56760;SDS011;42633;44.494;11.356;2022-07-29T04:06:07;7.15;;;5.38;;
56760;SDS011;42633;44.494;11.356;2022-07-29T04:09:11;6.95;;;5.38;;
56760;SDS011;42633;44.494;11.356;2022-07-29T04:12:16;8.23;;;5.00;;
56760;SDS011;42633;44.494;11.356;2022-07-29T04:15:20;11.95;;;5.55;;
56760;SDS011;42633;44.494;11.356;2022-07-29T04:18:24;8.70;;;5.15;;
56760;SDS011;42633;44.494;11.356;2022-07-29T04:21:28;8.73;;;5.22;;
56760;SDS011;42633;44.494;11.356;2022-07-29T04:24:32;7.35;;;5.18;;
56760;SDS011;42633;44.494;11.356;2022-07-29T04:27:37;8.25;;;5.60;;
56760;SDS011;42633;44.494;11.356;2022-07-29T04:31:02;7.65;;;5.57;;
56760;SDS011;42633;44.494;11.356;2022-07-29T04:34:06;6.72;;;5.43;;
56760;SDS011;42633;44.494;11.356;2022-07-29T04:37:10;7.15;;;5.38;;
56760;SDS011;42633;44.494;11.356;2022-07-29T04:40:14;7.38;;;4.47;;
56760;SDS011;42633;44.494;11.356;2022-07-29T04:43:19;9.20;;;4.93;;
56760;SDS011;42633;44.494;11.356;2022-07-29T04:46:23;10.57;;;5.40;;
56760;SDS011;42633;44.494;11.356;2022-07-29T04:49:28;7.65;;;5.10;;
56760;SDS011;42633;44.494;11.356;2022-07-29T04:52:33;5.55;;;4.32;;
56760;SDS011;42633;44.494;11.356;2022-07-29T04:55:38;10.18;;;5.25;;
56760;SDS011;42633;44.494;11.356;2022-07-29T04:58:43;7.93;;;5.20;;
56760;SDS011;42633;44.494;11.356;2022-07-29T05:01:47;11.65;;;5.55;;
56760;SDS011;42633;44.494;11.356;2022-07-29T05:04:51;6.55;;;4.30;;
56760;SDS011;42633;44.494;11.356;2022-07-29T05:07:55;7.38;;;4.40;;
56760;SDS011;42633;44.494;11.356;2022-07-29T05:11:01;4.97;;;4.10;;
56760;SDS011;42633;44.494;11.356;2022-07-29T05:14:05;6.28;;;4.70;;
56760;SDS011;42633;44.494;11.356;2022-07-29T05:17:09;9.50;;;5.50;;
56760;SDS011;42633;44.494;11.356;2022-07-29T05:20:14;7.57;;;5.03;;
56760;SDS011;42633;44.494;11.356;2022-07-29T05:23:19;7.85;;;5.07;;
56760;SDS011;42633;44.494;11.356;2022-07-29T05:26:23;5.38;;;4.85;;
56760;SDS011;42633;44.494;11.356;2022-07-29T05:29:27;7.30;;;4.57;;
56760;SDS011;42633;44.494;11.356;2022-07-29T05:32:31;10.00;;;5.03;;
56760;SDS011;42633;44.494;11.356;2022-07-29T05:35:36;6.15;;;4.88;;
56760;SDS011;42633;44.494;11.356;2022-07-29T05:38:40;8.85;;;4.95;;
56760;SDS011;42633;44.494;11.356;2022-07-29T05:41:44;8.35;;;5.28;;
56760;SDS011;42633;44.494;11.356;2022-07-29T05:44:48;7.82;;;4.32;;
56760;SDS011;42633;44.494;11.356;2022-07-29T05:47:52;13.98;;;5.18;;
56760;SDS011;42633;44.494;11.356;2022-07-29T05:50:56;7.60;;;4.70;;
56760;SDS011;42633;44.494;11.356;2022-07-29T05:54:00;9.07;;;4.53;;
56760;SDS011;42633;44.494;11.356;2022-07-29T05:57:05;10.07;;;5.32;;
56760;SDS011;42633;44.494;11.356;2022-07-29T06:00:09;7.97;;;5.90;;
56760;SDS011;42633;44.494;11.356;2022-07-29T06:03:17;11.02;;;5.88;;
56760;SDS011;42633;44.494;11.356;2022-07-29T06:06:21;8.60;;;5.68;;
56760;SDS011;42633;44.494;11.356;2022-07-29T06:09:26;12.93;;;5.90;;
56760;SDS011;42633;44.494;11.356;2022-07-29T06:12:30;12.80;;;6.30;;
56760;SDS011;42633;44.494;11.356;2022-07-29T06:15:34;11.65;;;6.03;;
56760;SDS011;42633;44.494;11.356;2022-07-29T06:18:39;9.70;;;6.82;;
56760;SDS011;42633;44.494;11.356;2022-07-29T06:21:43;14.27;;;7.35;;
56760;SDS011;42633;44.494;11.356;2022-07-29T06:24:48;15.65;;;7.38;;
56760;SDS011;42633;44.494;11.356;2022-07-29T06:27:52;14.45;;;8.15;;
56760;SDS011;42633;44.494;11.356;2022-07-29T06:30:56;15.57;;;6.85;;
56760;SDS011;42633;44.494;11.356;2022-07-29T06:34:00;15.63;;;7.45;;
56760;SDS011;42633;44.494;11.356;2022-07-29T06:37:07;13.23;;;7.03;;
56760;SDS011;42633;44.494;11.356;2022-07-29T06:40:11;15.40;;;6.60;;
56760;SDS011;42633;44.494;11.356;2022-07-29T06:43:35;10.38;;;6.68;;
56760;SDS011;42633;44.494;11.356;2022-07-29T06:46:44;14.60;;;5.97;;
56760;SDS011;42633;44.494;11.356;2022-07-29T06:49:52;14.40;;;6.35;;
56760;SDS011;42633;44.494;11.356;2022-07-29T06:52:56;12.13;;;6.20;;
56760;SDS011;42633;44.494;11.356;2022-07-29T06:56:00;12.00;;;6.75;;
56760;SDS011;42633;44.494;11.356;2022-07-29T06:59:08;12.10;;;6.45;;
56760;SDS011;42633;44.494;11.356;2022-07-29T07:02:13;9.32;;;6.60;;
56760;SDS011;42633;44.494;11.356;2022-07-29T07:05:17;8.68;;;5.97;;
56760;SDS011;42633;44.494;11.356;2022-07-29T07:08:21;20.25;;;7.00;;
56760;SDS011;42633;44.494;11.356;2022-07-29T07:11:27;16.65;;;7.05;;
56760;SDS011;42633;44.494;11.356;2022-07-29T07:14:31;13.25;;;6.53;;
56760;SDS011;42633;44.494;11.356;2022-07-29T07:17:35;13.98;;;6.28;;
56760;SDS011;42633;44.494;11.356;2022-07-29T07:20:40;17.25;;;6.57;;
56760;SDS011;42633;44.494;11.356;2022-07-29T07:23:46;17.90;;;7.90;;
56760;SDS011;42633;44.494;11.356;2022-07-29T07:26:50;12.10;;;6.70;;
56760;SDS011;42633;44.494;11.356;2022-07-29T07:29:54;8.73;;;6.07;;
56760;SDS011;42633;44.494;11.356;2022-07-29T07:32:59;29.38;;;8.55;;
56760;SDS011;42633;44.494;11.356;2022-07-29T07:36:03;24.88;;;7.78;;
56760;SDS011;42633;44.494;11.356;2022-07-29T07:39:08;14.13;;;7.70;;
56760;SDS011;42633;44.494;11.356;2022-07-29T07:42:13;15.15;;;6.25;;
56760;SDS011;42633;44.494;11.356;2022-07-29T07:45:17;23.65;;;7.95;;
56760;SDS011;42633;44.494;11.356;2022-07-29T07:48:21;17.45;;;7.30;;
56760;SDS011;42633;44.494;11.356;2022-07-29T07:51:27;12.35;;;7.00;;
56760;SDS011;42633;44.494;11.356;2022-07-29T07:54:32;14.02;;;5.90;;
56760;SDS011;42633;44.494;11.356;2022-07-29T07:57:36;23.65;;;7.55;;
56760;SDS011;42633;44.494;11.356;2022-07-29T08:00:40;30.70;;;7.82;;
56760;SDS011;42633;44.494;11.356;2022-07-29T08:03:44;13.10;;;8.13;;
56760;SDS011;42633;44.494;11.356;2022-07-29T08:06:47;15.82;;;7.25;;
56760;SDS011;42633;44.494;11.356;2022-07-29T08:09:53;16.60;;;6.40;;
56760;SDS011;42633;44.494;11.356;2022-07-29T08:12:57;17.27;;;7.20;;
56760;SDS011;42633;44.494;11.356;2022-07-29T08:16:01;15.07;;;6.80;;
56760;SDS011;42633;44.494;11.356;2022-07-29T08:19:14;14.77;;;7.60;;
56760;SDS011;42633;44.494;11.356;2022-07-29T08:22:18;15.38;;;7.53;;
56760;SDS011;42633;44.494;11.356;2022-07-29T08:25:22;15.88;;;7.70;;
56760;SDS011;42633;44.494;11.356;2022-07-29T08:28:26;10.52;;;6.35;;
56760;SDS011;42633;44.494;11.356;2022-07-29T08:31:30;21.40;;;7.32;;
56760;SDS011;42633;44.494;11.356;2022-07-29T08:34:34;14.98;;;7.55;;
56760;SDS011;42633;44.494;11.356;2022-07-29T08:37:38;11.57;;;7.32;;
56760;SDS011;42633;44.494;11.356;2022-07-29T08:40:42;17.30;;;7.13;;
56760;SDS011;42633;44.494;11.356;2022-07-29T08:43:47;10.80;;;6.40;;
56760;SDS011;42633;44.494;11.356;2022-07-29T08:46:51;10.38;;;6.75;;
56760;SDS011;42633;44.494;11.356;2022-07-29T08:49:55;11.82;;;6.25;;
56760;SDS011;42633;44.494;11.356;2022-07-29T08:52:59;12.27;;;6.88;;
56760;SDS011;42633;44.494;11.356;2022-07-29T08:56:04;15.68;;;6.50;;
56760;SDS011;42633;44.494;11.356;2022-07-29T08:59:09;11.80;;;6.57;;
56760;SDS011;42633;44.494;11.356;2022-07-29T09:02:21;12.27;;;5.82;;
56760;SDS011;42633;44.494;11.356;2022-07-29T09:05:26;17.35;;;6.78;;
56760;SDS011;42633;44.494;11.356;2022-07-29T09:08:31;9.05;;;6.20;;
56760;SDS011;42633;44.494;11.356;2022-07-29T09:11:36;11.57;;;5.95;;
56760;SDS011;42633;44.494;11.356;2022-07-29T09:14:40;9.93;;;5.43;;
56760;SDS011;42633;44.494;11.356;2022-07-29T09:17:45;8.57;;;5.22;;
56760;SDS011;42633;44.494;11.356;2022-07-29T09:20:51;9.90;;;5.83;;
56760;SDS011;42633;44.494;11.356;2022-07-29T09:24:14;19.58;;;6.53;;
56760;SDS011;42633;44.494;11.356;2022-07-29T09:30:29;11.00;;;6.40;;
56760;SDS011;42633;44.494;11.356;2022-07-29T09:33:33;9.98;;;5.45;;
56760;SDS011;42633;44.494;11.356;2022-07-29T09:36:44;12.40;;;5.63;;
56760;SDS011;42633;44.494;11.356;2022-07-29T09:39:52;7.03;;;5.78;;
56760;SDS011;42633;44.494;11.356;2022-07-29T09:42:57;11.13;;;5.20;;
56760;SDS011;42633;44.494;11.356;2022-07-29T09:46:12;10.10;;;5.78;;
56760;SDS011;42633;44.494;11.356;2022-07-29T09:49:17;10.50;;;6.28;;
56760;SDS011;42633;44.494;11.356;2022-07-29T09:52:21;10.93;;;6.40;;
56760;SDS011;42633;44.494;11.356;2022-07-29T09:55:25;6.13;;;4.93;;
56760;SDS011;42633;44.494;11.356;2022-07-29T09:58:29;11.82;;;6.07;;
56760;SDS011;42633;44.494;11.356;2022-07-29T10:01:34;9.57;;;5.47;;
56760;SDS011;42633;44.494;11.356;2022-07-29T10:04:39;8.13;;;5.95;;
56760;SDS011;42633;44.494;11.356;2022-07-29T10:07:46;9.32;;;5.50;;
56760;SDS011;42633;44.494;11.356;2022-07-29T10:11:03;8.25;;;5.20;;
56760;SDS011;42633;44.494;11.356;2022-07-29T10:14:13;6.97;;;4.68;;
56760;SDS011;42633;44.494;11.356;2022-07-29T10:17:18;9.15;;;5.43;;
56760;SDS011;42633;44.494;11.356;2022-07-29T10:20:22;8.98;;;6.10;;
56760;SDS011;42633;44.494;11.356;2022-07-29T10:23:31;10.73;;;5.82;;
56760;SDS011;42633;44.494;11.356;2022-07-29T10:26:35;9.68;;;4.80;;
56760;SDS011;42633;44.494;11.356;2022-07-29T10:29:40;12.55;;;5.93;;
56760;SDS011;42633;44.494;11.356;2022-07-29T10:39:31;9.60;;;5.30;;
56760;SDS011;42633;44.494;11.356;2022-07-29T10:42:59;11.40;;;5.20;;
56760;SDS011;42633;44.494;11.356;2022-07-29T10:46:20;11.20;;;5.43;;
56760;SDS011;42633;44.494;11.356;2022-07-29T10:49:25;11.35;;;5.03;;
56760;SDS011;42633;44.494;11.356;2022-07-29T10:55:53;10.02;;;5.35;;
56760;SDS011;42633;44.494;11.356;2022-07-29T11:05:55;14.40;;;8.27;;
56760;SDS011;42633;44.494;11.356;2022-07-29T11:09:15;8.48;;;6.03;;
56760;SDS011;42633;44.494;11.356;2022-07-29T11:22:33;8.27;;;4.45;;
56760;SDS011;42633;44.494;11.356;2022-07-29T11:25:39;9.27;;;5.15;;
56760;SDS011;42633;44.494;11.356;2022-07-29T11:32:12;5.82;;;4.47;;
56760;SDS011;42633;44.494;11.356;2022-07-29T11:35:22;8.40;;;4.60;;
56760;SDS011;42633;44.494;11.356;2022-07-29T11:38:27;8.38;;;4.53;;
56760;SDS011;42633;44.494;11.356;2022-07-29T11:41:31;7.25;;;4.32;;
56760;SDS011;42633;44.494;11.356;2022-07-29T11:48:14;6.43;;;3.88;;
56760;SDS011;42633;44.494;11.356;2022-07-29T11:51:20;6.90;;;4.15;;
56760;SDS011;42633;44.494;11.356;2022-07-29T11:54:25;6.80;;;4.95;;
56760;SDS011;42633;44.494;11.356;2022-07-29T11:57:33;18.55;;;6.10;;
56760;SDS011;42633;44.494;11.356;2022-07-29T12:00:39;5.47;;;4.10;;
56760;SDS011;42633;44.494;11.356;2022-07-29T12:03:44;7.40;;;4.30;;
56760;SDS011;42633;44.494;11.356;2022-07-29T12:06:52;8.90;;;4.38;;
56760;SDS011;42633;44.494;11.356;2022-07-29T12:09:57;8.57;;;4.40;;
56760;SDS011;42633;44.494;11.356;2022-07-29T12:13:04;6.85;;;4.75;;
56760;SDS011;42633;44.494;11.356;2022-07-29T12:16:11;7.78;;;4.25;;
56760;SDS011;42633;44.494;11.356;2022-07-29T12:19:15;8.68;;;4.60;;
56760;SDS011;42633;44.494;11.356;2022-07-29T12:22:37;8.70;;;4.38;;
56760;SDS011;42633;44.494;11.356;2022-07-29T12:25:46;6.43;;;4.03;;
56760;SDS011;42633;44.494;11.356;2022-07-29T12:28:50;5.50;;;3.42;;
56760;SDS011;42633;44.494;11.356;2022-07-29T12:31:54;7.75;;;5.40;;
56760;SDS011;42633;44.494;11.356;2022-07-29T12:34:59;7.65;;;4.38;;
56760;SDS011;42633;44.494;11.356;2022-07-29T12:38:06;9.30;;;4.38;;
56760;SDS011;42633;44.494;11.356;2022-07-29T12:41:12;9.18;;;4.80;;
56760;SDS011;42633;44.494;11.356;2022-07-29T12:44:16;9.77;;;4.05;;
56760;SDS011;42633;44.494;11.356;2022-07-29T12:47:20;6.60;;;4.55;;
56760;SDS011;42633;44.494;11.356;2022-07-29T12:50:25;7.07;;;5.10;;
56760;SDS011;42633;44.494;11.356;2022-07-29T12:53:29;9.63;;;4.65;;
56760;SDS011;42633;44.494;11.356;2022-07-29T12:56:33;5.90;;;4.75;;
56760;SDS011;42633;44.494;11.356;2022-07-29T12:59:38;7.05;;;4.97;;
56760;SDS011;42633;44.494;11.356;2022-07-29T13:02:42;9.38;;;4.53;;
56760;SDS011;42633;44.494;11.356;2022-07-29T13:05:46;8.10;;;5.57;;
56760;SDS011;42633;44.494;11.356;2022-07-29T13:12:17;9.70;;;5.60;;
56760;SDS011;42633;44.494;11.356;2022-07-29T13:15:21;6.97;;;4.07;;
56760;SDS011;42633;44.494;11.356;2022-07-29T13:18:32;7.80;;;4.55;;
56760;SDS011;42633;44.494;11.356;2022-07-29T13:21:40;8.93;;;4.20;;
56760;SDS011;42633;44.494;11.356;2022-07-29T13:24:45;10.27;;;4.95;;
56760;SDS011;42633;44.494;11.356;2022-07-29T13:27:56;10.70;;;4.60;;
56760;SDS011;42633;44.494;11.356;2022-07-29T13:31:01;7.32;;;4.30;;
56760;SDS011;42633;44.494;11.356;2022-07-29T13:34:06;6.47;;;4.80;;
56760;SDS011;42633;44.494;11.356;2022-07-29T13:37:10;6.47;;;4.20;;
56760;SDS011;42633;44.494;11.356;2022-07-29T13:40:15;7.55;;;4.35;;
56760;SDS011;42633;44.494;11.356;2022-07-29T13:43:19;7.68;;;3.85;;
56760;SDS011;42633;44.494;11.356;2022-07-29T13:46:23;6.30;;;4.68;;
56760;SDS011;42633;44.494;11.356;2022-07-29T13:49:27;13.35;;;5.43;;
56760;SDS011;42633;44.494;11.356;2022-07-29T13:52:31;13.38;;;6.22;;
56760;SDS011;42633;44.494;11.356;2022-07-29T13:55:37;10.13;;;4.90;;
56760;SDS011;42633;44.494;11.356;2022-07-29T13:58:41;8.32;;;4.88;;
56760;SDS011;42633;44.494;11.356;2022-07-29T14:01:45;9.75;;;7.22;;
56760;SDS011;42633;44.494;11.356;2022-07-29T14:04:49;14.25;;;5.93;;
56760;SDS011;42633;44.494;11.356;2022-07-29T14:07:53;9.10;;;4.45;;
56760;SDS011;42633;44.494;11.356;2022-07-29T14:10:58;7.57;;;4.50;;
56760;SDS011;42633;44.494;11.356;2022-07-29T14:14:02;7.63;;;4.03;;
56760;SDS011;42633;44.494;11.356;2022-07-29T14:17:06;6.88;;;4.28;;
56760;SDS011;42633;44.494;11.356;2022-07-29T14:20:10;7.20;;;4.50;;
56760;SDS011;42633;44.494;11.356;2022-07-29T14:23:14;9.13;;;4.78;;
56760;SDS011;42633;44.494;11.356;2022-07-29T14:26:18;7.53;;;4.95;;
56760;SDS011;42633;44.494;11.356;2022-07-29T14:29:22;11.13;;;5.95;;
56760;SDS011;42633;44.494;11.356;2022-07-29T14:32:26;9.63;;;5.82;;
56760;SDS011;42633;44.494;11.356;2022-07-29T14:35:30;9.88;;;4.32;;
56760;SDS011;42633;44.494;11.356;2022-07-29T14:38:35;10.63;;;6.03;;
56760;SDS011;42633;44.494;11.356;2022-07-29T14:41:40;10.38;;;4.80;;
56760;SDS011;42633;44.494;11.356;2022-07-29T14:44:45;8.23;;;5.05;;
56760;SDS011;42633;44.494;11.356;2022-07-29T14:47:51;12.48;;;6.13;;
56760;SDS011;42633;44.494;11.356;2022-07-29T14:50:55;6.05;;;4.80;;
56760;SDS011;42633;44.494;11.356;2022-07-29T14:53:59;11.35;;;4.80;;
56760;SDS011;42633;44.494;11.356;2022-07-29T14:57:03;7.78;;;5.00;;
56760;SDS011;42633;44.494;11.356;2022-07-29T15:00:08;9.38;;;5.05;;
56760;SDS011;42633;44.494;11.356;2022-07-29T15:03:13;8.00;;;5.18;;
56760;SDS011;42633;44.494;11.356;2022-07-29T15:06:17;11.85;;;5.22;;
56760;SDS011;42633;44.494;11.356;2022-07-29T15:09:21;8.85;;;5.45;;
56760;SDS011;42633;44.494;11.356;2022-07-29T15:12:25;8.65;;;4.60;;
56760;SDS011;42633;44.494;11.356;2022-07-29T15:15:30;7.50;;;4.55;;
56760;SDS011;42633;44.494;11.356;2022-07-29T15:18:34;13.90;;;8.10;;
56760;SDS011;42633;44.494;11.356;2022-07-29T15:21:38;11.50;;;5.75;;
56760;SDS011;42633;44.494;11.356;2022-07-29T15:24:42;13.20;;;5.32;;
56760;SDS011;42633;44.494;11.356;2022-07-29T15:27:48;11.68;;;5.60;;
56760;SDS011;42633;44.494;11.356;2022-07-29T15:30:55;8.90;;;5.20;;
56760;SDS011;42633;44.494;11.356;2022-07-29T15:33:59;8.52;;;5.40;;
56760;SDS011;42633;44.494;11.356;2022-07-29T15:37:04;10.23;;;5.57;;
56760;SDS011;42633;44.494;11.356;2022-07-29T15:40:08;19.23;;;5.97;;
56760;SDS011;42633;44.494;11.356;2022-07-29T15:43:13;11.57;;;6.63;;
56760;SDS011;42633;44.494;11.356;2022-07-29T15:46:17;14.07;;;6.40;;
56760;SDS011;42633;44.494;11.356;2022-07-29T15:49:41;13.27;;;6.65;;
56760;SDS011;42633;44.494;11.356;2022-07-29T15:52:45;14.25;;;6.78;;
56760;SDS011;42633;44.494;11.356;2022-07-29T15:55:49;10.27;;;5.78;;
56760;SDS011;42633;44.494;11.356;2022-07-29T15:58:53;12.88;;;5.93;;
56760;SDS011;42633;44.494;11.356;2022-07-29T16:01:58;13.60;;;5.97;;
56760;SDS011;42633;44.494;11.356;2022-07-29T16:05:03;9.27;;;5.78;;
56760;SDS011;42633;44.494;11.356;2022-07-29T16:08:08;11.75;;;5.70;;
56760;SDS011;42633;44.494;11.356;2022-07-29T16:11:12;10.25;;;5.18;;
56760;SDS011;42633;44.494;11.356;2022-07-29T16:14:16;13.88;;;6.45;;
56760;SDS011;42633;44.494;11.356;2022-07-29T16:17:20;10.23;;;5.97;;
56760;SDS011;42633;44.494;11.356;2022-07-29T16:20:24;10.40;;;5.82;;
56760;SDS011;42633;44.494;11.356;2022-07-29T16:23:28;12.13;;;5.82;;
56760;SDS011;42633;44.494;11.356;2022-07-29T16:26:33;9.07;;;6.00;;
56760;SDS011;42633;44.494;11.356;2022-07-29T16:29:37;9.35;;;5.85;;
56760;SDS011;42633;44.494;11.356;2022-07-29T16:32:42;12.02;;;5.80;;
56760;SDS011;42633;44.494;11.356;2022-07-29T16:35:46;11.10;;;5.65;;
56760;SDS011;42633;44.494;11.356;2022-07-29T16:38:50;10.68;;;5.80;;
56760;SDS011;42633;44.494;11.356;2022-07-29T16:41:54;11.25;;;5.63;;
56760;SDS011;42633;44.494;11.356;2022-07-29T16:44:58;13.48;;;5.88;;
56760;SDS011;42633;44.494;11.356;2022-07-29T16:48:02;15.30;;;5.20;;
56760;SDS011;42633;44.494;11.356;2022-07-29T16:51:07;13.85;;;6.22;;
56760;SDS011;42633;44.494;11.356;2022-07-29T16:54:11;10.50;;;6.40;;
56760;SDS011;42633;44.494;11.356;2022-07-29T16:57:16;9.90;;;5.90;;
56760;SDS011;42633;44.494;11.356;2022-07-29T17:00:20;9.98;;;5.57;;
56760;SDS011;42633;44.494;11.356;2022-07-29T17:03:24;10.30;;;5.85;;
56760;SDS011;42633;44.494;11.356;2022-07-29T17:06:29;11.68;;;5.82;;
56760;SDS011;42633;44.494;11.356;2022-07-29T17:09:34;12.48;;;6.28;;
56760;SDS011;42633;44.494;11.356;2022-07-29T17:12:39;14.52;;;6.10;;
56760;SDS011;42633;44.494;11.356;2022-07-29T17:15:43;11.40;;;5.82;;
56760;SDS011;42633;44.494;11.356;2022-07-29T17:18:47;16.33;;;6.70;;
56760;SDS011;42633;44.494;11.356;2022-07-29T17:21:52;13.77;;;6.63;;
56760;SDS011;42633;44.494;11.356;2022-07-29T17:24:56;10.93;;;5.30;;
56760;SDS011;42633;44.494;11.356;2022-07-29T17:28:00;12.00;;;6.00;;
56760;SDS011;42633;44.494;11.356;2022-07-29T17:31:04;7.72;;;5.68;;
56760;SDS011;42633;44.494;11.356;2022-07-29T17:34:11;14.00;;;8.82;;
56760;SDS011;42633;44.494;11.356;2022-07-29T17:37:16;10.18;;;5.72;;
56760;SDS011;42633;44.494;11.356;2022-07-29T17:40:20;19.85;;;8.82;;
56760;SDS011;42633;44.494;11.356;2022-07-29T17:43:25;16.50;;;6.70;;
56760;SDS011;42633;44.494;11.356;2022-07-29T17:46:46;13.23;;;6.45;;
56760;SDS011;42633;44.494;11.356;2022-07-29T17:49:59;18.30;;;7.18;;
56760;SDS011;42633;44.494;11.356;2022-07-29T17:53:03;13.65;;;5.93;;
56760;SDS011;42633;44.494;11.356;2022-07-29T17:56:07;15.00;;;7.68;;
56760;SDS011;42633;44.494;11.356;2022-07-29T17:59:11;14.73;;;5.95;;
56760;SDS011;42633;44.494;11.356;2022-07-29T18:02:16;10.80;;;5.88;;
56760;SDS011;42633;44.494;11.356;2022-07-29T18:05:21;12.43;;;5.22;;
56760;SDS011;42633;44.494;11.356;2022-07-29T18:08:25;10.68;;;5.35;;
56760;SDS011;42633;44.494;11.356;2022-07-29T18:11:29;13.20;;;6.13;;
56760;SDS011;42633;44.494;11.356;2022-07-29T18:14:34;10.40;;;5.20;;
56760;SDS011;42633;44.494;11.356;2022-07-29T18:17:38;10.30;;;5.20;;
56760;SDS011;42633;44.494;11.356;2022-07-29T18:20:43;12.30;;;6.38;;
56760;SDS011;42633;44.494;11.356;2022-07-29T18:23:47;12.30;;;5.53;;
56760;SDS011;42633;44.494;11.356;2022-07-29T18:26:53;6.07;;;4.97;;
56760;SDS011;42633;44.494;11.356;2022-07-29T18:29:57;8.00;;;4.93;;
56760;SDS011;42633;44.494;11.356;2022-07-29T18:33:02;12.35;;;5.45;;
56760;SDS011;42633;44.494;11.356;2022-07-29T18:36:07;8.18;;;4.78;;
56760;SDS011;42633;44.494;11.356;2022-07-29T18:39:11;8.23;;;5.03;;
56760;SDS011;42633;44.494;11.356;2022-07-29T18:42:17;14.85;;;6.55;;
56760;SDS011;42633;44.494;11.356;2022-07-29T18:45:21;10.52;;;4.93;;
56760;SDS011;42633;44.494;11.356;2022-07-29T18:48:25;11.68;;;6.28;;
56760;SDS011;42633;44.494;11.356;2022-07-29T18:51:29;11.90;;;6.07;;
56760;SDS011;42633;44.494;11.356;2022-07-29T18:54:33;12.13;;;5.40;;
56760;SDS011;42633;44.494;11.356;2022-07-29T18:57:37;9.10;;;5.53;;
56760;SDS011;42633;44.494;11.356;2022-07-29T19:00:40;15.85;;;6.35;;
56760;SDS011;42633;44.494;11.356;2022-07-29T19:03:45;9.52;;;6.00;;
56760;SDS011;42633;44.494;11.356;2022-07-29T19:06:49;13.27;;;6.75;;
56760;SDS011;42633;44.494;11.356;2022-07-29T19:09:53;14.57;;;6.93;;
56760;SDS011;42633;44.494;11.356;2022-07-29T19:13:00;9.15;;;6.05;;
56760;SDS011;42633;44.494;11.356;2022-07-29T19:16:04;12.77;;;7.32;;
56760;SDS011;42633;44.494;11.356;2022-07-29T19:19:08;10.90;;;6.70;;
56760;SDS011;42633;44.494;11.356;2022-07-29T19:22:13;7.90;;;5.50;;